createdAt,value
2018-03-11T05:53:02.049Z,22.9
2018-03-11T05:53:51.972Z,22.9
2018-03-11T05:54:40.999Z,23
2018-03-11T05:55:31.231Z,22.9
2018-03-11T05:56:20.975Z,23
2018-03-11T05:57:10.475Z,23.1
2018-03-11T05:58:01.328Z,23.1
2018-03-11T05:58:51.094Z,23
2018-03-11T05:59:40.953Z,23
2018-03-11T06:00:31.432Z,23
2018-03-11T06:01:21.761Z,23
2018-03-11T06:02:11.622Z,23
2018-03-11T06:03:01.122Z,23
2018-03-11T06:03:51.707Z,23
2018-03-11T06:04:41.997Z,23
2018-03-11T06:05:31.829Z,23
2018-03-11T06:06:22.118Z,23
2018-03-11T06:07:12.276Z,22.9
2018-03-11T06:08:02.931Z,22.9
2018-03-11T06:08:51.936Z,22.8
2018-03-11T06:09:41.955Z,22.8
2018-03-11T06:10:32.675Z,22.8
2018-03-11T06:11:22.313Z,22.8
2018-03-11T06:12:12.158Z,22.7
2018-03-11T06:13:02.506Z,22.6
2018-03-11T06:13:52.872Z,22.6
2018-03-11T06:14:43.321Z,22.6
2018-03-11T06:15:32.477Z,22.6
2018-03-11T06:16:22.526Z,22.6
2018-03-11T06:17:12.881Z,22.6
2018-03-11T06:18:02.880Z,22.6
2018-03-11T06:18:53.195Z,22.6
2018-03-11T06:19:42.550Z,22.6
2018-03-11T06:20:32.163Z,22.6
2018-03-11T06:21:22.338Z,22.6
2018-03-11T06:22:11.905Z,22.6
2018-03-11T06:23:02.531Z,22.6
2018-03-11T06:23:52.586Z,22.5
2018-03-11T06:24:41.772Z,22.5
2018-03-11T06:25:32.700Z,22.5
2018-03-11T06:26:22.597Z,22.5
2018-03-11T06:27:13.305Z,22.4
2018-03-11T06:28:02.669Z,22.4
2018-03-11T06:28:53.060Z,22.4
2018-03-11T06:29:43.959Z,22.4
2018-03-11T06:30:34.833Z,22.4
2018-03-11T06:31:24.045Z,22.4
2018-03-11T06:32:13.000Z,22.4
2018-03-11T06:33:03.137Z,22.4
2018-03-11T06:33:55.268Z,22.4
2018-03-11T06:34:45.359Z,22.4
2018-03-11T06:35:33.982Z,22.4
2018-03-11T06:36:25.458Z,22.4
2018-03-11T06:37:15.259Z,22.4
2018-03-11T06:38:05.332Z,22.4
2018-03-11T06:38:54.276Z,22.4
2018-03-11T06:39:45.307Z,22.5
2018-03-11T06:40:35.234Z,22.5
2018-03-11T06:41:24.272Z,22.5
2018-03-11T06:42:14.585Z,22.5
2018-03-11T06:43:05.713Z,22.5
2018-03-11T06:43:55.154Z,22.5
2018-03-11T06:44:46.047Z,22.5
2018-03-11T06:45:35.571Z,22.5
2018-03-11T06:46:26.149Z,22.5
2018-03-11T06:47:15.679Z,22.5
2018-03-11T06:48:06.025Z,22.5
2018-03-11T06:48:56.091Z,22.6
2018-03-11T06:49:46.128Z,22.6
2018-03-11T06:50:35.981Z,22.6
2018-03-11T06:51:24.961Z,22.7
2018-03-11T06:52:14.946Z,22.8
2018-03-11T06:53:05.361Z,22.8
2018-03-11T06:53:54.552Z,22.8
2018-03-11T06:54:45.694Z,22.8
2018-03-11T06:55:36.029Z,22.8
2018-03-11T06:56:25.912Z,22.8
2018-03-11T06:57:15.864Z,22.8
2018-03-11T06:58:04.746Z,22.8
2018-03-11T06:58:56.566Z,22.8
2018-03-11T06:59:46.298Z,22.8
2018-03-11T07:00:35.865Z,22.8
2018-03-11T07:01:26.187Z,22.8
2018-03-11T07:02:15.542Z,22.8
2018-03-11T07:03:06.358Z,22.9
2018-03-11T07:03:56.244Z,22.9
2018-03-11T07:04:45.633Z,23
2018-03-11T07:05:35.785Z,23.1
2018-03-11T07:06:25.617Z,23.1
2018-03-11T07:07:16.305Z,23.1
2018-03-11T07:08:06.166Z,23.1
2018-03-11T07:08:57.234Z,23.1
2018-03-11T07:09:47.893Z,23.1
2018-03-11T07:10:37.367Z,23.2
2018-03-11T07:11:27.502Z,23.2
2018-03-11T07:12:17.748Z,23.2
2018-03-11T07:13:08.122Z,23.2
2018-03-11T07:13:57.329Z,23.2
2018-03-11T07:14:46.711Z,23.3
2018-03-11T07:15:36.580Z,23.3
2018-03-11T07:16:26.535Z,23.3
2018-03-11T07:17:15.920Z,23.3
2018-03-11T07:18:06.172Z,23.3
2018-03-11T07:18:56.608Z,23.3
2018-03-11T07:19:46.701Z,23.3
2018-03-11T07:20:35.869Z,23.3
2018-03-11T07:21:27.102Z,23.3
2018-03-11T07:22:16.711Z,23.3
2018-03-11T07:23:07.060Z,23.3
2018-03-11T07:23:57.244Z,23.3
2018-03-11T07:24:46.369Z,23.3
2018-03-11T07:25:37.969Z,23.2
2018-03-11T07:26:28.012Z,23.2
2018-03-11T07:27:16.250Z,23.2
2018-03-11T07:28:07.194Z,23.2
2018-03-11T07:28:58.224Z,23.2
2018-03-11T07:29:47.525Z,23.2
2018-03-11T07:30:37.630Z,23.2
2018-03-11T07:31:27.311Z,23.3
2018-03-11T07:32:16.445Z,23.3
2018-03-11T07:33:07.746Z,23.3
2018-03-11T07:33:58.306Z,23.3
2018-03-11T07:34:48.017Z,23.3
2018-03-11T07:35:38.729Z,23.3
2018-03-11T07:36:28.206Z,23.3
2018-03-11T07:37:17.856Z,23.4
2018-03-11T07:38:07.623Z,23.4
2018-03-11T07:38:57.578Z,23.4
2018-03-11T07:39:48.406Z,23.4
2018-03-11T07:40:38.290Z,23.4
2018-03-11T07:41:29.411Z,23.4
2018-03-11T07:42:18.500Z,23.4
2018-03-11T07:43:07.580Z,23.5
2018-03-11T07:43:58.120Z,23.5
2018-03-11T07:44:49.080Z,23.5
2018-03-11T07:45:37.965Z,23.5
2018-03-11T07:46:28.797Z,23.4
2018-03-11T07:47:18.709Z,23.4
2018-03-11T07:48:08.468Z,23.4
2018-03-11T07:48:58.834Z,23.4
2018-03-11T07:49:48.161Z,23.4
2018-03-11T07:50:38.533Z,23.4
2018-03-11T07:51:28.465Z,23.4
2018-03-11T07:52:18.770Z,23.4
2018-03-11T07:53:08.912Z,23.3
2018-03-11T07:53:59.319Z,23.3
2018-03-11T07:54:49.309Z,23.3
2018-03-11T07:55:38.996Z,23.3
2018-03-11T07:56:28.734Z,23.4
2018-03-11T07:57:19.876Z,23.4
2018-03-11T07:58:09.682Z,23.4
2018-03-11T07:58:58.145Z,23.4
2018-03-11T07:59:49.995Z,23.4
2018-03-11T08:00:39.442Z,23.4
2018-03-11T08:01:29.264Z,23.4
2018-03-11T08:02:18.979Z,23.5
2018-03-11T08:03:10.527Z,23.4
2018-03-11T08:04:00.165Z,23.3
2018-03-11T08:04:50.505Z,23.2
2018-03-11T08:05:40.232Z,23.1
2018-03-11T08:06:29.181Z,22.9
2018-03-11T08:07:20.816Z,22.8
2018-03-11T08:08:10.291Z,22.7
2018-03-11T08:08:59.624Z,22.6
2018-03-11T08:09:49.912Z,22.5
2018-03-11T08:10:39.782Z,22.4
2018-03-11T08:11:30.519Z,22.3
2018-03-11T08:12:20.592Z,22.3
2018-03-11T08:13:10.731Z,22.1
2018-03-11T08:14:00.201Z,22.1
2018-03-11T08:14:50.587Z,22
2018-03-11T08:15:40.466Z,21.9
2018-03-11T08:16:31.058Z,21.9
2018-03-11T08:17:21.446Z,21.8
2018-03-11T08:18:11.198Z,21.8
2018-03-11T08:19:01.046Z,21.7
2018-03-11T08:19:50.446Z,21.7
2018-03-11T08:20:41.015Z,21.6
2018-03-11T08:21:31.156Z,21.6
2018-03-11T08:22:21.525Z,21.6
2018-03-11T08:23:10.663Z,21.6
2018-03-11T08:24:00.850Z,21.6
2018-03-11T08:24:51.431Z,21.6
2018-03-11T08:25:40.087Z,21.6
2018-03-11T08:26:31.510Z,21.6
2018-03-11T08:27:22.268Z,21.6
2018-03-11T08:28:12.023Z,21.6
2018-03-11T08:29:01.667Z,21.6
2018-03-11T08:29:51.864Z,21.6
2018-03-11T08:30:41.725Z,21.6
2018-03-11T08:31:31.790Z,21.5
2018-03-11T08:32:23.185Z,21.5
2018-03-11T08:33:12.074Z,21.4
2018-03-11T08:34:02.168Z,21.5
2018-03-11T08:34:52.779Z,21.5
2018-03-11T08:35:42.465Z,21.6
2018-03-11T08:36:32.027Z,21.5
2018-03-11T08:37:22.593Z,21.5
2018-03-11T08:38:11.782Z,21.6
2018-03-11T08:39:02.822Z,21.5
2018-03-11T08:39:51.987Z,21.5
2018-03-11T08:40:41.782Z,21.5
2018-03-11T08:41:31.414Z,21.5
2018-03-11T08:42:22.284Z,21.6
2018-03-11T08:43:12.701Z,21.6
2018-03-11T08:44:02.893Z,21.7
2018-03-11T08:44:53.692Z,21.7
2018-03-11T08:45:44.014Z,21.8
2018-03-11T08:46:33.803Z,21.9
2018-03-11T08:47:23.889Z,21.9
2018-03-11T08:48:13.997Z,22.1
2018-03-11T08:49:02.987Z,22.1
2018-03-11T08:49:53.499Z,22.3
2018-03-11T08:50:43.959Z,22.4
2018-03-11T08:51:33.948Z,22.4
2018-03-11T08:52:24.229Z,22.5
2018-03-11T08:53:14.555Z,22.6
2018-03-11T08:54:04.981Z,22.6
2018-03-11T08:54:54.388Z,22.7
2018-03-11T08:55:44.702Z,22.8
2018-03-11T08:56:33.568Z,22.8
2018-03-11T08:57:24.407Z,22.8
2018-03-11T08:58:14.404Z,22.8
2018-03-11T08:59:04.335Z,22.8
2018-03-11T08:59:54.297Z,22.8
2018-03-11T09:00:45.118Z,22.9
2018-03-11T09:01:33.336Z,22.9
2018-03-11T09:02:24.681Z,22.9
2018-03-11T09:03:15.611Z,22.9
2018-03-11T09:04:05.082Z,22.9
2018-03-11T09:04:55.441Z,22.9
2018-03-11T09:05:45.445Z,22.9
2018-03-11T09:06:35.764Z,22.9
2018-03-11T09:07:25.313Z,22.9
2018-03-11T09:08:15.631Z,22.9
2018-03-11T09:09:05.711Z,22.9
2018-03-11T09:09:55.565Z,22.9
2018-03-11T09:10:46.111Z,22.9
2018-03-11T09:11:36.135Z,22.9
2018-03-11T09:12:25.923Z,22.9
2018-03-11T09:13:15.971Z,22.9
2018-03-11T09:14:06.090Z,22.9
2018-03-11T09:14:56.359Z,22.9
2018-03-11T09:15:46.247Z,23
2018-03-11T09:16:36.513Z,23
2018-03-11T09:17:25.074Z,23.1
2018-03-11T09:18:15.075Z,23.1
2018-03-11T09:19:05.378Z,23.1
2018-03-11T09:19:54.803Z,23.1
2018-03-11T09:20:46.421Z,23.1
2018-03-11T09:21:35.893Z,23.1
2018-03-11T09:22:25.756Z,23.1
2018-03-11T09:23:15.399Z,23.1
2018-03-11T09:24:04.858Z,23.1
2018-03-11T09:24:55.434Z,23.1
2018-03-11T09:25:45.907Z,23.1
2018-03-11T09:26:35.539Z,23.2
2018-03-11T09:27:26.144Z,23.1
2018-03-11T09:28:15.790Z,23.1
2018-03-11T09:29:06.315Z,23.1
2018-03-11T09:29:56.201Z,23.1
2018-03-11T09:30:46.255Z,23.1
2018-03-11T09:31:36.887Z,23.1
2018-03-11T09:32:25.697Z,23.1
2018-03-11T09:33:16.376Z,23.1
2018-03-11T09:34:06.404Z,23.1
2018-03-11T09:34:56.584Z,23.1
2018-03-11T09:35:46.526Z,23
2018-03-11T09:36:36.619Z,23
2018-03-11T09:37:26.531Z,23
2018-03-11T09:38:15.797Z,23
2018-03-11T09:39:06.737Z,23
2018-03-11T09:39:57.098Z,23
2018-03-11T09:40:47.840Z,23
2018-03-11T09:41:38.396Z,23.1
2018-03-11T09:42:26.501Z,23.1
2018-03-11T09:43:18.217Z,23.1
2018-03-11T09:44:08.623Z,23.1
2018-03-11T09:44:58.556Z,23.1
2018-03-11T09:45:48.176Z,23.2
2018-03-11T09:46:38.440Z,23.1
2018-03-11T09:47:27.958Z,22.9
2018-03-11T09:48:18.522Z,23
2018-03-11T09:49:07.286Z,23
2018-03-11T09:49:57.030Z,23.1
2018-03-11T09:50:47.968Z,23.1
2018-03-11T09:51:36.910Z,23.1
2018-03-11T09:52:27.509Z,23
2018-03-11T09:53:17.682Z,23
2018-03-11T09:54:07.842Z,23
2018-03-11T09:54:59.060Z,22.9
2018-03-11T09:55:48.624Z,22.7
2018-03-11T09:56:38.613Z,22.5
2018-03-11T09:57:27.560Z,22.3
2018-03-11T09:58:18.138Z,22.3
2018-03-11T09:59:08.228Z,22.3
2018-03-11T09:59:58.530Z,22.3
2018-03-11T10:00:48.412Z,22.4
2018-03-11T10:01:38.781Z,22.3
2018-03-11T10:02:27.955Z,22.3
2018-03-11T10:03:19.127Z,22.4
2018-03-11T10:04:09.170Z,22.5
2018-03-11T10:04:59.492Z,22.6
2018-03-11T10:05:48.118Z,22.6
2018-03-11T10:06:39.155Z,22.5
2018-03-11T10:07:29.145Z,22.5
2018-03-11T10:08:18.975Z,22.6
2018-03-11T10:09:08.728Z,22.5
2018-03-11T10:09:58.308Z,22.5
2018-03-11T10:10:49.482Z,22.6
2018-03-11T10:11:39.447Z,22.7
2018-03-11T10:12:29.601Z,22.6
2018-03-11T10:13:19.727Z,22.5
2018-03-11T10:14:09.510Z,22.5
2018-03-11T10:14:59.232Z,22.5
2018-03-11T10:15:49.032Z,22.5
2018-03-11T10:16:39.172Z,22.5
2018-03-11T10:17:29.830Z,22.6
2018-03-11T10:18:19.577Z,22.6
2018-03-11T10:19:09.564Z,22.6
2018-03-11T10:19:59.872Z,22.6
2018-03-11T10:20:49.319Z,22.7
2018-03-11T10:21:39.138Z,22.7
2018-03-11T10:22:28.938Z,22.8
2018-03-11T10:23:19.760Z,22.8
2018-03-11T10:24:10.212Z,22.8
2018-03-11T10:25:00.647Z,22.8
2018-03-11T10:25:51.281Z,22.9
2018-03-11T10:26:40.293Z,22.9
2018-03-11T10:27:31.230Z,22.9
2018-03-11T10:28:19.701Z,22.8
2018-03-11T10:29:09.975Z,22.9
2018-03-11T10:30:00.159Z,22.9
2018-03-11T10:30:50.803Z,22.9
2018-03-11T10:31:41.155Z,22.8
2018-03-11T10:32:31.513Z,22.8
2018-03-11T10:33:20.954Z,22.8
2018-03-11T10:34:11.060Z,22.8
2018-03-11T10:35:00.506Z,22.8
2018-03-11T10:35:50.597Z,22.8
2018-03-11T10:36:41.246Z,22.8
2018-03-11T10:37:30.213Z,22.7
2018-03-11T10:38:20.655Z,22.7
2018-03-11T10:39:10.645Z,22.6
2018-03-11T10:40:00.513Z,22.6
2018-03-11T10:40:51.516Z,22.6
2018-03-11T10:41:41.206Z,22.6
2018-03-11T10:42:31.689Z,22.5
2018-03-11T10:43:22.247Z,22.5
2018-03-11T10:44:11.686Z,22.5
2018-03-11T10:45:02.146Z,22.4
2018-03-11T10:45:51.865Z,22.5
2018-03-11T10:46:42.057Z,22.5
2018-03-11T10:47:32.141Z,22.5
2018-03-11T10:48:21.409Z,22.6
2018-03-11T10:49:12.680Z,22.6
2018-03-11T10:50:02.390Z,22.7
2018-03-11T10:50:52.961Z,22.8
2018-03-11T10:51:42.948Z,22.8
2018-03-11T10:52:32.966Z,22.8
2018-03-11T10:53:21.899Z,22.8
2018-03-11T10:54:12.485Z,22.9
2018-03-11T10:55:01.890Z,23
2018-03-11T10:55:52.832Z,22.9
2018-03-11T10:56:43.009Z,22.9
2018-03-11T10:57:32.194Z,23
2018-03-11T10:58:22.415Z,23
2018-03-11T10:59:12.470Z,23.1
2018-03-11T11:00:01.741Z,23.1
2018-03-11T11:00:53.182Z,23.1
2018-03-11T11:01:42.169Z,23.1
2018-03-11T11:02:33.572Z,23.1
2018-03-11T11:03:23.351Z,23.1
2018-03-11T11:04:13.269Z,23.1
2018-03-11T11:05:02.880Z,23.1
2018-03-11T11:05:52.803Z,23.1
2018-03-11T11:06:42.834Z,23.1
2018-03-11T11:07:34.067Z,23.1
2018-03-11T11:08:22.933Z,23.1
2018-03-11T11:09:13.187Z,23.1
2018-03-11T11:10:02.764Z,23
2018-03-11T11:10:53.005Z,23
2018-03-11T11:11:43.593Z,22.9
2018-03-11T11:12:34.444Z,22.9
2018-03-11T11:13:24.359Z,22.9
2018-03-11T11:14:13.623Z,22.8
2018-03-11T11:15:03.266Z,22.9
2018-03-11T11:15:53.872Z,22.8
2018-03-11T11:16:43.744Z,22.8
2018-03-11T11:17:34.489Z,22.8
2018-03-11T11:18:22.681Z,22.7
2018-03-11T11:19:13.746Z,22.7
2018-03-11T11:20:04.705Z,22.6
2018-03-11T11:20:54.526Z,22.6
2018-03-11T11:21:44.207Z,22.6
2018-03-11T11:22:34.167Z,22.6
2018-03-11T11:23:23.623Z,22.5
2018-03-11T11:24:14.497Z,22.5
2018-03-11T11:25:05.855Z,22.5
2018-03-11T11:25:55.618Z,22.4
2018-03-11T11:26:45.778Z,22.4
2018-03-11T11:27:35.767Z,22.4
2018-03-11T11:28:26.059Z,22.4
2018-03-11T11:29:15.592Z,22.5
2018-03-11T11:30:06.215Z,22.6
2018-03-11T11:30:55.775Z,22.6
2018-03-11T11:31:45.773Z,22.6
2018-03-11T11:32:35.818Z,22.7
2018-03-11T11:33:25.068Z,22.8
2018-03-11T11:34:16.246Z,22.8
2018-03-11T11:35:06.690Z,22.9
2018-03-11T11:35:56.682Z,22.9
2018-03-11T11:36:46.695Z,22.9
2018-03-11T11:37:37.150Z,22.9
2018-03-11T11:38:26.634Z,23
2018-03-11T11:39:16.317Z,23.1
2018-03-11T11:40:06.736Z,23.1
2018-03-11T11:40:56.424Z,23.1
